sensor_id;sensor_type;location;lat;lon;timestamp;temperature;humidity
3940;DHT22;1984;48.312;9.244;2022-12-29T00:01:59;5.00;99.90
3940;DHT22;1984;48.312;9.244;2022-12-29T00:04:25;5.00;99.90
3940;DHT22;1984;48.312;9.244;2022-12-29T00:06:52;5.00;99.90
3940;DHT22;1984;48.312;9.244;2022-12-29T00:09:18;5.10;99.90
3940;DHT22;1984;48.312;9.244;2022-12-29T00:11:43;5.20;99.90
3940;DHT22;1984;48.312;9.244;2022-12-29T00:14:11;5.20;99.90
3940;DHT22;1984;48.312;9.244;2022-12-29T00:17:00;5.20;99.90
3940;DHT22;1984;48.312;9.244;2022-12-29T00:19:26;5.20;99.90
3940;DHT22;1984;48.312;9.244;2022-12-29T00:22:11;5.20;99.90
3940;DHT22;1984;48.312;9.244;2022-12-29T00:24:56;5.20;99.90
3940;DHT22;1984;48.312;9.244;2022-12-29T00:27:31;5.20;99.90
3940;DHT22;1984;48.312;9.244;2022-12-29T00:30:18;5.20;99.90
3940;DHT22;1984;48.312;9.244;2022-12-29T00:33:17;5.20;99.90
3940;DHT22;1984;48.312;9.244;2022-12-29T00:38:31;5.20;99.90
3940;DHT22;1984;48.312;9.244;2022-12-29T00:41:16;5.30;99.90
3940;DHT22;1984;48.312;9.244;2022-12-29T00:44:00;5.20;99.90
3940;DHT22;1984;48.312;9.244;2022-12-29T00:46:33;5.20;99.90
3940;DHT22;1984;48.312;9.244;2022-12-29T00:48:59;5.20;99.90
3940;DHT22;1984;48.312;9.244;2022-12-29T00:51:43;5.20;99.90
3940;DHT22;1984;48.312;9.244;2022-12-29T00:54:09;5.20;99.90
3940;DHT22;1984;48.312;9.244;2022-12-29T00:56:34;5.20;99.90
3940;DHT22;1984;48.312;9.244;2022-12-29T00:59:05;5.30;99.90
3940;DHT22;1984;48.312;9.244;2022-12-29T01:01:30;5.20;99.90
3940;DHT22;1984;48.312;9.244;2022-12-29T01:03:56;5.20;99.90
3940;DHT22;1984;48.312;9.244;2022-12-29T01:06:22;5.20;99.90
3940;DHT22;1984;48.312;9.244;2022-12-29T01:08:48;5.20;99.90
3940;DHT22;1984;48.312;9.244;2022-12-29T01:11:34;5.20;99.90
3940;DHT22;1984;48.312;9.244;2022-12-29T01:13:59;5.20;99.90
3940;DHT22;1984;48.312;9.244;2022-12-29T01:16:25;5.20;99.90
3940;DHT22;1984;48.312;9.244;2022-12-29T01:18:50;5.20;99.90
3940;DHT22;1984;48.312;9.244;2022-12-29T01:21:16;5.20;99.90
3940;DHT22;1984;48.312;9.244;2022-12-29T01:23:41;5.30;99.90
3940;DHT22;1984;48.312;9.244;2022-12-29T01:26:15;5.30;99.90
3940;DHT22;1984;48.312;9.244;2022-12-29T01:28:41;5.30;99.90
3940;DHT22;1984;48.312;9.244;2022-12-29T01:31:11;5.40;99.90
3940;DHT22;1984;48.312;9.244;2022-12-29T01:33:37;5.40;99.90
3940;DHT22;1984;48.312;9.244;2022-12-29T01:36:07;5.40;99.90
3940;DHT22;1984;48.312;9.244;2022-12-29T01:38:34;5.40;99.90
3940;DHT22;1984;48.312;9.244;2022-12-29T01:41:00;5.40;99.90
3940;DHT22;1984;48.312;9.244;2022-12-29T01:43:46;5.40;99.90
3940;DHT22;1984;48.312;9.244;2022-12-29T01:46:34;5.40;99.90
3940;DHT22;1984;48.312;9.244;2022-12-29T01:49:24;5.40;99.90
3940;DHT22;1984;48.312;9.244;2022-12-29T01:51:53;5.40;99.90
3940;DHT22;1984;48.312;9.244;2022-12-29T01:56:52;5.40;99.90
3940;DHT22;1984;48.312;9.244;2022-12-29T01:59:22;5.40;99.90
3940;DHT22;1984;48.312;9.244;2022-12-29T02:01:49;5.40;99.90
3940;DHT22;1984;48.312;9.244;2022-12-29T02:04:15;5.40;99.90
3940;DHT22;1984;48.312;9.244;2022-12-29T02:06:57;5.40;99.90
3940;DHT22;1984;48.312;9.244;2022-12-29T02:09:24;5.40;99.90
3940;DHT22;1984;48.312;9.244;2022-12-29T02:11:50;5.40;99.90
3940;DHT22;1984;48.312;9.244;2022-12-29T02:14:16;5.40;99.90
3940;DHT22;1984;48.312;9.244;2022-12-29T02:22:27;5.50;99.90
3940;DHT22;1984;48.312;9.244;2022-12-29T02:30:57;5.50;99.90
3940;DHT22;1984;48.312;9.244;2022-12-29T02:39:45;5.50;99.90
3940;DHT22;1984;48.312;9.244;2022-12-29T02:48:09;5.50;99.90
3940;DHT22;1984;48.312;9.244;2022-12-29T02:50:43;5.40;99.90
3940;DHT22;1984;48.312;9.244;2022-12-29T02:53:13;5.40;99.90
3940;DHT22;1984;48.312;9.244;2022-12-29T02:55:39;5.30;99.90
3940;DHT22;1984;48.312;9.244;2022-12-29T03:09:36;5.10;99.90
3940;DHT22;1984;48.312;9.244;2022-12-29T03:15:00;5.10;99.90
3940;DHT22;1984;48.312;9.244;2022-12-29T03:18:10;5.10;99.90
3940;DHT22;1984;48.312;9.244;2022-12-29T03:20:52;5.00;99.90
3940;DHT22;1984;48.312;9.244;2022-12-29T03:23:20;5.00;99.90
3940;DHT22;1984;48.312;9.244;2022-12-29T03:25:49;5.00;99.90
3940;DHT22;1984;48.312;9.244;2022-12-29T03:28:25;4.90;99.90
3940;DHT22;1984;48.312;9.244;2022-12-29T03:30:53;4.90;99.90
3940;DHT22;1984;48.312;9.244;2022-12-29T03:33:25;5.00;99.90
3940;DHT22;1984;48.312;9.244;2022-12-29T03:35:55;4.90;99.90
3940;DHT22;1984;48.312;9.244;2022-12-29T03:38:27;4.90;99.90
3940;DHT22;1984;48.312;9.244;2022-12-29T03:40:58;4.90;99.90
3940;DHT22;1984;48.312;9.244;2022-12-29T03:43:25;4.90;99.90
3940;DHT22;1984;48.312;9.244;2022-12-29T03:45:51;4.90;99.90
3940;DHT22;1984;48.312;9.244;2022-12-29T03:48:16;4.80;99.90
3940;DHT22;1984;48.312;9.244;2022-12-29T03:50:42;4.80;99.90
3940;DHT22;1984;48.312;9.244;2022-12-29T03:53:08;4.80;99.90
3940;DHT22;1984;48.312;9.244;2022-12-29T03:55:33;4.70;99.90
3940;DHT22;1984;48.312;9.244;2022-12-29T03:57:59;4.60;99.90
3940;DHT22;1984;48.312;9.244;2022-12-29T04:00:24;4.50;99.90
3940;DHT22;1984;48.312;9.244;2022-12-29T04:02:50;4.50;99.90
3940;DHT22;1984;48.312;9.244;2022-12-29T04:05:15;4.40;99.90
3940;DHT22;1984;48.312;9.244;2022-12-29T04:07:41;4.50;99.90
3940;DHT22;1984;48.312;9.244;2022-12-29T04:10:07;4.40;99.90
3940;DHT22;1984;48.312;9.244;2022-12-29T04:12:32;4.40;99.90
3940;DHT22;1984;48.312;9.244;2022-12-29T04:14:58;4.40;99.90
3940;DHT22;1984;48.312;9.244;2022-12-29T04:17:23;4.30;99.90
3940;DHT22;1984;48.312;9.244;2022-12-29T04:19:49;4.30;99.90
3940;DHT22;1984;48.312;9.244;2022-12-29T04:22:14;4.20;99.90
3940;DHT22;1984;48.312;9.244;2022-12-29T04:24:40;4.20;99.90
3940;DHT22;1984;48.312;9.244;2022-12-29T04:27:05;4.20;99.90
3940;DHT22;1984;48.312;9.244;2022-12-29T04:29:31;4.10;99.90
3940;DHT22;1984;48.312;9.244;2022-12-29T04:31:56;4.00;99.90
3940;DHT22;1984;48.312;9.244;2022-12-29T04:34:22;3.90;99.90
3940;DHT22;1984;48.312;9.244;2022-12-29T04:36:47;3.90;99.90
3940;DHT22;1984;48.312;9.244;2022-12-29T04:39:13;3.80;99.90
3940;DHT22;1984;48.312;9.244;2022-12-29T04:41:39;3.80;99.90
3940;DHT22;1984;48.312;9.244;2022-12-29T04:44:04;3.70;99.90
3940;DHT22;1984;48.312;9.244;2022-12-29T04:46:30;3.70;99.90
3940;DHT22;1984;48.312;9.244;2022-12-29T04:48:55;3.80;99.90
3940;DHT22;1984;48.312;9.244;2022-12-29T04:51:21;3.80;99.90
3940;DHT22;1984;48.312;9.244;2022-12-29T04:53:46;3.90;99.90
3940;DHT22;1984;48.312;9.244;2022-12-29T04:56:12;3.90;99.90
3940;DHT22;1984;48.312;9.244;2022-12-29T04:58:37;3.90;99.90
3940;DHT22;1984;48.312;9.244;2022-12-29T05:01:03;4.00;99.90
3940;DHT22;1984;48.312;9.244;2022-12-29T05:03:28;4.10;99.90
3940;DHT22;1984;48.312;9.244;2022-12-29T05:05:55;4.10;99.90
3940;DHT22;1984;48.312;9.244;2022-12-29T05:08:20;4.10;99.90
3940;DHT22;1984;48.312;9.244;2022-12-29T05:10:46;4.10;99.90
3940;DHT22;1984;48.312;9.244;2022-12-29T05:13:12;4.10;99.90
3940;DHT22;1984;48.312;9.244;2022-12-29T05:15:37;4.10;99.90
3940;DHT22;1984;48.312;9.244;2022-12-29T05:18:03;4.10;99.90
3940;DHT22;1984;48.312;9.244;2022-12-29T05:20:28;4.10;99.90
3940;DHT22;1984;48.312;9.244;2022-12-29T05:22:54;4.10;99.90
3940;DHT22;1984;48.312;9.244;2022-12-29T05:25:19;4.10;99.90
3940;DHT22;1984;48.312;9.244;2022-12-29T05:27:45;4.10;99.90
3940;DHT22;1984;48.312;9.244;2022-12-29T05:30:11;4.10;99.90
3940;DHT22;1984;48.312;9.244;2022-12-29T05:32:36;4.10;99.90
3940;DHT22;1984;48.312;9.244;2022-12-29T05:35:02;4.20;99.90
3940;DHT22;1984;48.312;9.244;2022-12-29T05:37:28;4.20;99.90
3940;DHT22;1984;48.312;9.244;2022-12-29T05:39:53;4.20;99.90
3940;DHT22;1984;48.312;9.244;2022-12-29T05:42:19;4.20;99.90
3940;DHT22;1984;48.312;9.244;2022-12-29T05:44:44;4.30;99.90
3940;DHT22;1984;48.312;9.244;2022-12-29T05:47:10;4.30;99.90
3940;DHT22;1984;48.312;9.244;2022-12-29T05:49:35;4.30;99.90
3940;DHT22;1984;48.312;9.244;2022-12-29T05:52:01;4.20;99.90
3940;DHT22;1984;48.312;9.244;2022-12-29T05:54:26;4.20;99.90
3940;DHT22;1984;48.312;9.244;2022-12-29T05:56:52;4.30;99.90
3940;DHT22;1984;48.312;9.244;2022-12-29T05:59:17;4.20;99.90
3940;DHT22;1984;48.312;9.244;2022-12-29T06:01:43;4.20;99.90
3940;DHT22;1984;48.312;9.244;2022-12-29T06:04:08;4.20;99.90
3940;DHT22;1984;48.312;9.244;2022-12-29T06:06:34;4.20;99.90
3940;DHT22;1984;48.312;9.244;2022-12-29T06:08:59;4.20;99.90
3940;DHT22;1984;48.312;9.244;2022-12-29T06:11:25;4.30;99.90
3940;DHT22;1984;48.312;9.244;2022-12-29T06:13:50;4.30;99.90
3940;DHT22;1984;48.312;9.244;2022-12-29T06:16:16;4.30;99.90
3940;DHT22;1984;48.312;9.244;2022-12-29T06:18:41;4.40;99.90
3940;DHT22;1984;48.312;9.244;2022-12-29T06:21:07;4.40;99.90
3940;DHT22;1984;48.312;9.244;2022-12-29T06:23:33;4.40;99.90
3940;DHT22;1984;48.312;9.244;2022-12-29T06:25:58;4.40;99.90
3940;DHT22;1984;48.312;9.244;2022-12-29T06:28:24;4.50;99.90
3940;DHT22;1984;48.312;9.244;2022-12-29T06:30:49;4.40;99.90
3940;DHT22;1984;48.312;9.244;2022-12-29T06:33:15;4.40;99.90
3940;DHT22;1984;48.312;9.244;2022-12-29T06:35:44;4.40;99.90
3940;DHT22;1984;48.312;9.244;2022-12-29T06:38:11;4.40;99.90
3940;DHT22;1984;48.312;9.244;2022-12-29T06:40:36;4.50;99.90
3940;DHT22;1984;48.312;9.244;2022-12-29T06:43:02;4.50;99.90
3940;DHT22;1984;48.312;9.244;2022-12-29T06:45:27;4.50;99.90
3940;DHT22;1984;48.312;9.244;2022-12-29T06:47:53;4.60;99.90
3940;DHT22;1984;48.312;9.244;2022-12-29T06:50:18;4.60;99.90
3940;DHT22;1984;48.312;9.244;2022-12-29T06:52:44;4.70;99.90
3940;DHT22;1984;48.312;9.244;2022-12-29T06:55:09;4.80;99.90
3940;DHT22;1984;48.312;9.244;2022-12-29T06:57:35;4.90;99.90
3940;DHT22;1984;48.312;9.244;2022-12-29T07:00:00;5.00;99.90
3940;DHT22;1984;48.312;9.244;2022-12-29T07:02:26;5.20;99.90
3940;DHT22;1984;48.312;9.244;2022-12-29T07:04:52;5.30;99.90
3940;DHT22;1984;48.312;9.244;2022-12-29T07:07:19;5.40;99.90
3940;DHT22;1984;48.312;9.244;2022-12-29T07:09:45;5.50;99.90
3940;DHT22;1984;48.312;9.244;2022-12-29T07:12:11;5.60;99.90
3940;DHT22;1984;48.312;9.244;2022-12-29T07:14:37;5.70;99.90
3940;DHT22;1984;48.312;9.244;2022-12-29T07:17:02;5.70;99.90
3940;DHT22;1984;48.312;9.244;2022-12-29T07:19:31;5.80;99.90
3940;DHT22;1984;48.312;9.244;2022-12-29T07:21:56;5.90;99.90
3940;DHT22;1984;48.312;9.244;2022-12-29T07:24:22;5.90;99.90
3940;DHT22;1984;48.312;9.244;2022-12-29T07:26:47;6.00;99.90
3940;DHT22;1984;48.312;9.244;2022-12-29T07:29:13;6.00;99.90
3940;DHT22;1984;48.312;9.244;2022-12-29T07:31:38;6.10;99.90
3940;DHT22;1984;48.312;9.244;2022-12-29T07:34:04;6.20;99.90
3940;DHT22;1984;48.312;9.244;2022-12-29T07:36:29;6.20;99.90
3940;DHT22;1984;48.312;9.244;2022-12-29T07:38:55;6.30;99.90
3940;DHT22;1984;48.312;9.244;2022-12-29T07:41:20;6.30;99.90
3940;DHT22;1984;48.312;9.244;2022-12-29T07:43:49;6.40;99.90
3940;DHT22;1984;48.312;9.244;2022-12-29T07:46:14;6.50;99.90
3940;DHT22;1984;48.312;9.244;2022-12-29T07:48:40;6.60;99.90
3940;DHT22;1984;48.312;9.244;2022-12-29T07:51:06;6.70;99.90
3940;DHT22;1984;48.312;9.244;2022-12-29T07:53:32;6.90;99.90
3940;DHT22;1984;48.312;9.244;2022-12-29T07:55:57;7.00;99.90
3940;DHT22;1984;48.312;9.244;2022-12-29T07:58:23;7.20;99.90
3940;DHT22;1984;48.312;9.244;2022-12-29T08:00:56;7.30;99.90
3940;DHT22;1984;48.312;9.244;2022-12-29T08:03:22;7.30;99.90
3940;DHT22;1984;48.312;9.244;2022-12-29T08:05:48;7.30;99.90
3940;DHT22;1984;48.312;9.244;2022-12-29T08:08:14;7.40;99.90
3940;DHT22;1984;48.312;9.244;2022-12-29T08:10:40;7.40;99.90
3940;DHT22;1984;48.312;9.244;2022-12-29T08:13:05;7.40;99.90
3940;DHT22;1984;48.312;9.244;2022-12-29T08:15:31;7.40;99.90
3940;DHT22;1984;48.312;9.244;2022-12-29T08:17:56;7.40;99.90
3940;DHT22;1984;48.312;9.244;2022-12-29T08:20:22;7.30;99.90
3940;DHT22;1984;48.312;9.244;2022-12-29T08:22:47;7.30;99.90
3940;DHT22;1984;48.312;9.244;2022-12-29T08:25:13;7.20;99.90
3940;DHT22;1984;48.312;9.244;2022-12-29T08:27:39;7.20;99.90
3940;DHT22;1984;48.312;9.244;2022-12-29T08:30:05;7.30;99.90
3940;DHT22;1984;48.312;9.244;2022-12-29T08:32:30;7.40;99.90
3940;DHT22;1984;48.312;9.244;2022-12-29T08:34:56;7.50;99.90
3940;DHT22;1984;48.312;9.244;2022-12-29T08:37:22;7.50;99.90
3940;DHT22;1984;48.312;9.244;2022-12-29T08:39:47;7.60;99.90
3940;DHT22;1984;48.312;9.244;2022-12-29T08:42:13;7.50;99.90
3940;DHT22;1984;48.312;9.244;2022-12-29T08:44:38;7.50;99.90
3940;DHT22;1984;48.312;9.244;2022-12-29T08:47:04;7.40;99.90
3940;DHT22;1984;48.312;9.244;2022-12-29T08:49:30;7.50;99.90
3940;DHT22;1984;48.312;9.244;2022-12-29T08:51:56;7.60;99.90
3940;DHT22;1984;48.312;9.244;2022-12-29T08:54:21;7.80;99.90
3940;DHT22;1984;48.312;9.244;2022-12-29T08:56:47;7.80;99.90
3940;DHT22;1984;48.312;9.244;2022-12-29T08:59:12;7.80;99.90
3940;DHT22;1984;48.312;9.244;2022-12-29T09:01:38;8.00;99.90
3940;DHT22;1984;48.312;9.244;2022-12-29T09:04:06;8.20;99.90
3940;DHT22;1984;48.312;9.244;2022-12-29T09:06:31;8.30;99.90
3940;DHT22;1984;48.312;9.244;2022-12-29T09:08:57;8.20;99.90
3940;DHT22;1984;48.312;9.244;2022-12-29T09:11:24;8.00;99.90
3940;DHT22;1984;48.312;9.244;2022-12-29T09:13:49;7.90;99.90
3940;DHT22;1984;48.312;9.244;2022-12-29T09:16:16;7.90;99.90
3940;DHT22;1984;48.312;9.244;2022-12-29T09:18:43;7.90;99.90
3940;DHT22;1984;48.312;9.244;2022-12-29T09:21:10;7.80;99.90
3940;DHT22;1984;48.312;9.244;2022-12-29T09:23:36;7.80;99.90
3940;DHT22;1984;48.312;9.244;2022-12-29T09:26:02;7.90;99.90
3940;DHT22;1984;48.312;9.244;2022-12-29T09:28:28;8.10;99.90
3940;DHT22;1984;48.312;9.244;2022-12-29T09:30:54;8.40;99.90
3940;DHT22;1984;48.312;9.244;2022-12-29T09:33:20;8.50;99.90
3940;DHT22;1984;48.312;9.244;2022-12-29T09:35:51;8.50;99.90
3940;DHT22;1984;48.312;9.244;2022-12-29T09:38:17;8.40;99.90
3940;DHT22;1984;48.312;9.244;2022-12-29T09:40:48;8.30;99.90
3940;DHT22;1984;48.312;9.244;2022-12-29T09:43:46;8.30;99.90
3940;DHT22;1984;48.312;9.244;2022-12-29T09:46:34;8.20;99.90
3940;DHT22;1984;48.312;9.244;2022-12-29T09:51:55;8.20;99.90
3940;DHT22;1984;48.312;9.244;2022-12-29T09:54:48;8.10;99.90
3940;DHT22;1984;48.312;9.244;2022-12-29T09:57:22;8.20;99.90
3940;DHT22;1984;48.312;9.244;2022-12-29T09:59:50;8.20;99.90
3940;DHT22;1984;48.312;9.244;2022-12-29T10:04:43;8.30;99.90
3940;DHT22;1984;48.312;9.244;2022-12-29T10:13:13;8.60;99.90
3940;DHT22;1984;48.312;9.244;2022-12-29T10:15:47;8.60;99.90
3940;DHT22;1984;48.312;9.244;2022-12-29T10:18:54;8.70;99.90
3940;DHT22;1984;48.312;9.244;2022-12-29T10:24:31;8.80;99.90
3940;DHT22;1984;48.312;9.244;2022-12-29T10:26:58;8.80;99.90
3940;DHT22;1984;48.312;9.244;2022-12-29T10:29:28;8.90;99.90
3940;DHT22;1984;48.312;9.244;2022-12-29T10:32:04;8.90;99.90
3940;DHT22;1984;48.312;9.244;2022-12-29T10:34:36;8.90;99.90
3940;DHT22;1984;48.312;9.244;2022-12-29T10:39:49;8.80;99.90
3940;DHT22;1984;48.312;9.244;2022-12-29T10:42:27;8.70;99.90
3940;DHT22;1984;48.312;9.244;2022-12-29T10:44:57;8.80;99.90
3940;DHT22;1984;48.312;9.244;2022-12-29T10:47:26;8.80;99.90
3940;DHT22;1984;48.312;9.244;2022-12-29T10:49:54;8.80;99.90
3940;DHT22;1984;48.312;9.244;2022-12-29T10:52:21;8.80;99.90
3940;DHT22;1984;48.312;9.244;2022-12-29T10:54:59;8.80;99.90
3940;DHT22;1984;48.312;9.244;2022-12-29T10:57:33;9.00;99.90
3940;DHT22;1984;48.312;9.244;2022-12-29T11:00:00;9.30;99.90
3940;DHT22;1984;48.312;9.244;2022-12-29T11:05:23;9.30;99.90
3940;DHT22;1984;48.312;9.244;2022-12-29T11:07:52;9.20;99.90
3940;DHT22;1984;48.312;9.244;2022-12-29T11:10:37;9.20;99.90
3940;DHT22;1984;48.312;9.244;2022-12-29T11:13:17;9.10;99.90
3940;DHT22;1984;48.312;9.244;2022-12-29T11:15:45;9.10;99.90
3940;DHT22;1984;48.312;9.244;2022-12-29T11:21:00;9.20;99.90
3940;DHT22;1984;48.312;9.244;2022-12-29T11:23:34;9.30;99.90
3940;DHT22;1984;48.312;9.244;2022-12-29T11:28:34;9.30;99.90
3940;DHT22;1984;48.312;9.244;2022-12-29T11:31:00;9.30;99.90
3940;DHT22;1984;48.312;9.244;2022-12-29T11:33:34;9.30;99.90
3940;DHT22;1984;48.312;9.244;2022-12-29T11:36:07;9.30;99.90
3940;DHT22;1984;48.312;9.244;2022-12-29T11:38:50;9.30;99.90
3940;DHT22;1984;48.312;9.244;2022-12-29T11:41:25;9.30;99.90
3940;DHT22;1984;48.312;9.244;2022-12-29T11:43:52;9.30;99.90
3940;DHT22;1984;48.312;9.244;2022-12-29T11:46:23;9.30;99.90
3940;DHT22;1984;48.312;9.244;2022-12-29T11:48:49;9.30;99.90
3940;DHT22;1984;48.312;9.244;2022-12-29T11:51:27;9.30;99.90
3940;DHT22;1984;48.312;9.244;2022-12-29T11:53:57;9.30;99.90
3940;DHT22;1984;48.312;9.244;2022-12-29T11:56:43;9.40;99.90
3940;DHT22;1984;48.312;9.244;2022-12-29T12:01:53;9.20;99.90
3940;DHT22;1984;48.312;9.244;2022-12-29T12:04:23;9.20;99.90
3940;DHT22;1984;48.312;9.244;2022-12-29T12:07:01;9.20;99.90
3940;DHT22;1984;48.312;9.244;2022-12-29T12:09:32;9.20;99.90
3940;DHT22;1984;48.312;9.244;2022-12-29T12:12:01;9.20;99.90
3940;DHT22;1984;48.312;9.244;2022-12-29T12:14:40;9.20;99.90
3940;DHT22;1984;48.312;9.244;2022-12-29T12:17:25;9.20;99.90
3940;DHT22;1984;48.312;9.244;2022-12-29T12:20:16;9.20;99.90
3940;DHT22;1984;48.312;9.244;2022-12-29T12:22:49;9.30;99.90
3940;DHT22;1984;48.312;9.244;2022-12-29T12:25:24;9.40;99.90
3940;DHT22;1984;48.312;9.244;2022-12-29T12:28:11;9.40;99.90
3940;DHT22;1984;48.312;9.244;2022-12-29T12:30:45;9.50;99.90
3940;DHT22;1984;48.312;9.244;2022-12-29T12:38:39;9.60;99.90
3940;DHT22;1984;48.312;9.244;2022-12-29T12:41:21;9.60;99.90
3940;DHT22;1984;48.312;9.244;2022-12-29T12:44:15;9.60;99.90
3940;DHT22;1984;48.312;9.244;2022-12-29T12:49:59;9.70;99.90
3940;DHT22;1984;48.312;9.244;2022-12-29T12:52:48;9.70;99.90
3940;DHT22;1984;48.312;9.244;2022-12-29T12:55:55;9.70;99.90
3940;DHT22;1984;48.312;9.244;2022-12-29T13:02:08;9.80;99.90
3940;DHT22;1984;48.312;9.244;2022-12-29T13:04:47;9.70;99.90
3940;DHT22;1984;48.312;9.244;2022-12-29T13:07:28;9.80;99.90
3940;DHT22;1984;48.312;9.244;2022-12-29T13:10:12;9.80;99.90
3940;DHT22;1984;48.312;9.244;2022-12-29T13:12:53;9.80;99.90
3940;DHT22;1984;48.312;9.244;2022-12-29T13:15:51;9.70;99.90
3940;DHT22;1984;48.312;9.244;2022-12-29T13:18:31;9.70;99.90
3940;DHT22;1984;48.312;9.244;2022-12-29T13:23:46;9.70;99.90
3940;DHT22;1984;48.312;9.244;2022-12-29T13:26:28;9.70;99.90
3940;DHT22;1984;48.312;9.244;2022-12-29T13:29:03;9.70;99.90
3940;DHT22;1984;48.312;9.244;2022-12-29T13:31:56;9.70;99.90
3940;DHT22;1984;48.312;9.244;2022-12-29T13:34:34;9.80;99.90
3940;DHT22;1984;48.312;9.244;2022-12-29T13:37:10;9.80;99.90
3940;DHT22;1984;48.312;9.244;2022-12-29T13:39:41;9.80;99.90
3940;DHT22;1984;48.312;9.244;2022-12-29T13:42:09;9.80;99.90
3940;DHT22;1984;48.312;9.244;2022-12-29T13:44:39;9.80;99.90
3940;DHT22;1984;48.312;9.244;2022-12-29T13:47:27;9.70;99.90
3940;DHT22;1984;48.312;9.244;2022-12-29T13:49:54;9.60;99.90
3940;DHT22;1984;48.312;9.244;2022-12-29T14:03:53;9.60;99.90
3940;DHT22;1984;48.312;9.244;2022-12-29T14:06:53;9.60;99.90
3940;DHT22;1984;48.312;9.244;2022-12-29T14:11:55;9.50;99.90
3940;DHT22;1984;48.312;9.244;2022-12-29T14:14:24;9.60;99.90
3940;DHT22;1984;48.312;9.244;2022-12-29T14:16:51;9.70;99.90
3940;DHT22;1984;48.312;9.244;2022-12-29T14:19:27;9.70;99.90
3940;DHT22;1984;48.312;9.244;2022-12-29T14:22:03;9.70;99.90
3940;DHT22;1984;48.312;9.244;2022-12-29T14:29:50;9.70;99.90
3940;DHT22;1984;48.312;9.244;2022-12-29T14:34:58;9.70;99.90
3940;DHT22;1984;48.312;9.244;2022-12-29T14:37:32;9.70;99.90
3940;DHT22;1984;48.312;9.244;2022-12-29T14:40:18;9.70;99.90
3940;DHT22;1984;48.312;9.244;2022-12-29T14:42:46;9.70;99.90
3940;DHT22;1984;48.312;9.244;2022-12-29T14:47:41;9.60;99.90
3940;DHT22;1984;48.312;9.244;2022-12-29T14:52:54;9.60;99.90
3940;DHT22;1984;48.312;9.244;2022-12-29T14:58:18;9.60;99.90
3940;DHT22;1984;48.312;9.244;2022-12-29T15:00:45;9.60;99.90
3940;DHT22;1984;48.312;9.244;2022-12-29T15:03:22;9.60;99.90
3940;DHT22;1984;48.312;9.244;2022-12-29T15:06:08;9.60;99.90
3940;DHT22;1984;48.312;9.244;2022-12-29T15:08:44;9.50;99.90
3940;DHT22;1984;48.312;9.244;2022-12-29T15:11:42;9.50;99.90
3940;DHT22;1984;48.312;9.244;2022-12-29T15:16:53;9.40;99.90
3940;DHT22;1984;48.312;9.244;2022-12-29T15:19:22;9.40;99.90
3940;DHT22;1984;48.312;9.244;2022-12-29T15:21:48;9.40;99.90
3940;DHT22;1984;48.312;9.244;2022-12-29T15:24:14;9.40;99.90
3940;DHT22;1984;48.312;9.244;2022-12-29T15:26:42;9.40;99.90
3940;DHT22;1984;48.312;9.244;2022-12-29T15:31:55;9.30;99.90
3940;DHT22;1984;48.312;9.244;2022-12-29T15:34:21;9.20;99.90
3940;DHT22;1984;48.312;9.244;2022-12-29T15:36:50;9.20;99.90
3940;DHT22;1984;48.312;9.244;2022-12-29T15:39:34;9.10;99.90
3940;DHT22;1984;48.312;9.244;2022-12-29T15:42:06;9.10;99.90
3940;DHT22;1984;48.312;9.244;2022-12-29T15:44:43;9.10;99.90
3940;DHT22;1984;48.312;9.244;2022-12-29T15:47:19;9.00;99.90
3940;DHT22;1984;48.312;9.244;2022-12-29T15:49:50;9.00;99.90
3940;DHT22;1984;48.312;9.244;2022-12-29T15:52:21;8.90;99.90
3940;DHT22;1984;48.312;9.244;2022-12-29T15:54:51;8.90;99.90
3940;DHT22;1984;48.312;9.244;2022-12-29T15:57:46;8.80;99.90
3940;DHT22;1984;48.312;9.244;2022-12-29T16:00:28;8.80;99.90
3940;DHT22;1984;48.312;9.244;2022-12-29T16:02:55;8.70;99.90
3940;DHT22;1984;48.312;9.244;2022-12-29T16:05:22;8.70;99.90
3940;DHT22;1984;48.312;9.244;2022-12-29T16:07:59;8.70;99.90
3940;DHT22;1984;48.312;9.244;2022-12-29T16:13:02;8.60;99.90
3940;DHT22;1984;48.312;9.244;2022-12-29T16:15:29;8.50;99.90
3940;DHT22;1984;48.312;9.244;2022-12-29T16:17:54;8.50;99.90
3940;DHT22;1984;48.312;9.244;2022-12-29T16:20:31;8.50;99.90
3940;DHT22;1984;48.312;9.244;2022-12-29T16:22:59;8.40;99.90
3940;DHT22;1984;48.312;9.244;2022-12-29T16:25:28;8.40;99.90
3940;DHT22;1984;48.312;9.244;2022-12-29T16:27:57;8.30;99.90
3940;DHT22;1984;48.312;9.244;2022-12-29T16:30:27;8.30;99.90
3940;DHT22;1984;48.312;9.244;2022-12-29T16:32:58;8.30;99.90
3940;DHT22;1984;48.312;9.244;2022-12-29T16:35:28;8.40;99.90
3940;DHT22;1984;48.312;9.244;2022-12-29T16:40:59;8.40;99.90
3940;DHT22;1984;48.312;9.244;2022-12-29T16:43:29;8.40;99.90
3940;DHT22;1984;48.312;9.244;2022-12-29T16:48:27;8.50;99.90
3940;DHT22;1984;48.312;9.244;2022-12-29T16:51:05;8.50;99.90
3940;DHT22;1984;48.312;9.244;2022-12-29T16:53:39;8.50;99.90
3940;DHT22;1984;48.312;9.244;2022-12-29T16:56:14;8.50;99.90
3940;DHT22;1984;48.312;9.244;2022-12-29T16:58:40;8.50;99.90
3940;DHT22;1984;48.312;9.244;2022-12-29T17:01:06;8.50;99.90
3940;DHT22;1984;48.312;9.244;2022-12-29T17:03:42;8.50;99.90
3940;DHT22;1984;48.312;9.244;2022-12-29T17:06:17;8.50;99.90
3940;DHT22;1984;48.312;9.244;2022-12-29T17:08:44;8.50;99.90
3940;DHT22;1984;48.312;9.244;2022-12-29T17:14:36;8.50;99.90
3940;DHT22;1984;48.312;9.244;2022-12-29T17:17:04;8.50;99.90
3940;DHT22;1984;48.312;9.244;2022-12-29T17:19:33;8.50;99.90
3940;DHT22;1984;48.312;9.244;2022-12-29T17:21:59;8.50;99.90
3940;DHT22;1984;48.312;9.244;2022-12-29T17:24:25;8.50;99.90
3940;DHT22;1984;48.312;9.244;2022-12-29T17:26:59;8.50;99.90
3940;DHT22;1984;48.312;9.244;2022-12-29T17:29:29;8.50;99.90
3940;DHT22;1984;48.312;9.244;2022-12-29T17:31:55;8.60;99.90
3940;DHT22;1984;48.312;9.244;2022-12-29T17:34:20;8.50;99.90
3940;DHT22;1984;48.312;9.244;2022-12-29T17:36:47;8.50;99.90
3940;DHT22;1984;48.312;9.244;2022-12-29T17:39:12;8.50;99.90
3940;DHT22;1984;48.312;9.244;2022-12-29T17:41:38;8.50;99.90
3940;DHT22;1984;48.312;9.244;2022-12-29T17:44:05;8.50;99.90
3940;DHT22;1984;48.312;9.244;2022-12-29T17:46:32;8.50;99.90
3940;DHT22;1984;48.312;9.244;2022-12-29T17:48:57;8.50;99.90
3940;DHT22;1984;48.312;9.244;2022-12-29T17:51:23;8.50;99.90
3940;DHT22;1984;48.312;9.244;2022-12-29T17:53:48;8.50;99.90
3940;DHT22;1984;48.312;9.244;2022-12-29T17:56:16;8.40;99.90
3940;DHT22;1984;48.312;9.244;2022-12-29T17:58:42;8.40;99.90
3940;DHT22;1984;48.312;9.244;2022-12-29T18:01:08;8.40;99.90
3940;DHT22;1984;48.312;9.244;2022-12-29T18:03:37;8.30;99.90
3940;DHT22;1984;48.312;9.244;2022-12-29T18:06:04;8.30;99.90
3940;DHT22;1984;48.312;9.244;2022-12-29T18:08:36;8.30;99.90
3940;DHT22;1984;48.312;9.244;2022-12-29T18:11:03;8.30;99.90
3940;DHT22;1984;48.312;9.244;2022-12-29T18:13:31;8.30;99.90
3940;DHT22;1984;48.312;9.244;2022-12-29T18:15:57;8.30;99.90
3940;DHT22;1984;48.312;9.244;2022-12-29T18:18:25;8.30;99.90
3940;DHT22;1984;48.312;9.244;2022-12-29T18:20:53;8.30;99.90
3940;DHT22;1984;48.312;9.244;2022-12-29T18:23:22;8.30;99.90
3940;DHT22;1984;48.312;9.244;2022-12-29T18:25:59;8.30;99.90
3940;DHT22;1984;48.312;9.244;2022-12-29T18:28:25;8.30;99.90
3940;DHT22;1984;48.312;9.244;2022-12-29T18:30:51;8.30;99.90
3940;DHT22;1984;48.312;9.244;2022-12-29T18:33:19;8.30;99.90
3940;DHT22;1984;48.312;9.244;2022-12-29T18:35:48;8.30;99.90
3940;DHT22;1984;48.312;9.244;2022-12-29T18:38:14;8.20;99.90
3940;DHT22;1984;48.312;9.244;2022-12-29T18:40:40;8.20;99.90
3940;DHT22;1984;48.312;9.244;2022-12-29T18:43:05;8.20;99.90
3940;DHT22;1984;48.312;9.244;2022-12-29T18:45:32;8.20;99.90
3940;DHT22;1984;48.312;9.244;2022-12-29T18:47:59;8.20;99.90
3940;DHT22;1984;48.312;9.244;2022-12-29T18:50:25;8.10;99.90